NEODyS-2

Near Earth Objects - Dynamic Site
NEODyS ∴ Observatories ∴ Site 691 ∴ Obs & residuals
Contact »
691  ▹ 
OBSERVATIONS AND RESIDUALS

691-Steward Observatory, Kitt Peak-Spacewatch

Detections | Residuals | Detections & Residuals

[1-200] [201-400] [401-600] [601-800] [801-1000] [1001-1200] [1201-1400] [1401-1600] [1601-1800] [1801-2000] [2001-2200] [2201-2400] [2401-2600] [2601-2800] [2801-3000] [3001-3200] [3201-3400] [3401-3600] [3601-3800] [3801-4000] [4001-4200] [4201-4400] [4401-4600] [4601-4800] [4801-5000] [5001-5200] [5201-5400] [5401-5600] [5601-5800] [5801-6000] [6001-6200] [6201-6400] [6401-6600] [6601-6800] [6801-7000] [7001-7200] [7201-7400] [7401-7600] [7601-7800] [7801-8000] [8001-8200] [8201-8400] [8401-8600] [8601-8800] [8801-9000] [9001-9200] [9201-9400] [9401-9600] [9601-9800] [9801-10000] [10001-10200] [10201-10400] [10401-10600] [10601-10800] [10801-11000] [11001-11200] [11201-11400] [11401-11600] [11601-11800] [11801-12000] [12001-12200] [12201-12400] [12401-12600] [12601-12800] [12801-13000] [13001-13200] [13201-13400] [13401-13600] [13601-13800] [13801-14000] [14001-14200] [14201-14400] [14401-14600] [14601-14800] [14801-15000] [15001-15200] [15201-15400] [15401-15600] [15601-15800] [15801-16000] [16001-16200] [16201-16400] [16401-16600] [16601-16800] [16801-17000] [17001-17200] [17201-17400] [17401-17600] [17601-17800] [17801-18000] [18001-18200] [18201-18400] [18401-18600] [18601-18800] [18801-19000] [19001-19200] [19201-19400] [19401-19600] [19601-19800] [19801-20000] [20001-20200] [20201-20400] [20401-20600] [20601-20800] [20801-21000] [21001-21200] [21201-21400] [21401-21600] [21601-21800] [21801-22000] [22001-22200] [22201-22400] [22401-22600] [22601-22800] [22801-23000] [23001-23200] [23201-23400] [23401-23600] [23601-23800] [23801-24000] [24001-24200] [24201-24400] [24401-24600] [24601-24800] [24801-25000] [25001-25200] [25201-25400] [25401-25600] [25601-25800] [25801-26000] [26001-26200] [26201-26400] [26401-26600] [26601-26800] [26801-27000] [27001-27200] [27201-27400] [27401-27600] [27601-27800] [27801-28000] [28001-28200] [28201-28400] [28401-28600] [28601-28800] [28801-29000] [29001-29200] [29201-29400] [29401-29600] [29601-29800] [29801-30000] [30001-30200] [30201-30400] [30401-30600] [30601-30800] [30801-31000] [31001-31200] [31201-31400] [31401-31600] [31601-31800] [31801-32000] [32001-32200] [32201-32400] [32401-32600] [32601-32800] [32801-33000] [33001-33200] [33201-33400] [33401-33600] [33601-33800] [33801-34000] [34001-34200] [34201-34400] [34401-34600] [34601-34800] [34801-35000] [35001-35200] [35201-35400] [35401-35600] [35601-35800] [35801-36000] [36001-36200] [36201-36400] [36401-36600] [36601-36800] [36801-37000] [37001-37200] [37201-37400] [37401-37600] [37601-37800] [37801-38000] [38001-38200] [38201-38400] [38401-38600] [38601-38800] [38801-39000] [39001-39200] [39201-39400] [39401-39600] [39601-39800] [39801-40000] [40001-40200] [40201-40400] [40401-40600] [40601-40800] [40801-41000] [41001-41200] [41201-41400] [41401-41600] [41601-41800] [41801-42000] [42001-42200] [42201-42400] [42401-42600] [42601-42800] [42801-43000] [43001-43200] [43201-43400] [43401-43600] [43601-43800] [43801-44000] [44001-44200] [44201-44400] [44401-44600] [44601-44800] [44801-45000] [45001-45200] [45201-45400] [45401-45600] [45601-45800] [45801-46000] [46001-46200] [46201-46400] [46401-46600] [46601-46800] [46801-47000] [47001-47200] [47201-47400] [47401-47600] [47601-47800] [47801-48000] [48001-48200] [48201-48400] [48401-48600] [48601-48800] [48801-49000] [49001-49200] [49201-49400] [49401-49600] [49601-49800] [49801-50000] [50001-50200] [50201-50388]

Designation T Tech N Date Right Ascension Declination Apparent Magnitude Star Catalog Site code χ Used A Used M
yr-mo-day precision hr:min:sec precision rms F bias residual deg min sec precision rms F bias residual mag/col rms residual
2018TX4 O C K 2018-12-10.16980 1.000E-05 00:04:24.400 1.500E-01 0.500 F -0.194 0.310 +15° 50' 36.60" 1.000E-01 0.500 F 0.406 0.195 21.2 R 0.70 0.13 o 691 0.74 Yes Yes
2018VW1 O C K 2018-12-10.17605 1.000E-05 23:58:44.490 1.500E-01 0.500 F -0.241 0.066 +16° 31' 29.30" 1.000E-01 0.500 F 0.414 -0.003 o 691 0.14 Yes No
1999RV2 O C H 2018-12-10.18352 1.000E-05 00:11:43.370 1.500E-01 0.500 F -0.079 0.145 +13° 28' 01.50" 1.000E-01 0.500 F 0.361 -0.127 o 691 0.39 Yes No
2018TX4 O C K 2018-12-10.18689 1.000E-05 00:04:23.740 1.500E-01 0.500 F -0.194 -0.246 +15° 50' 29.80" 1.000E-01 0.500 F 0.406 0.565 21.0 R 0.70 -0.07 o 691 1.24 Yes Yes
2018VW1 O C K 2018-12-10.19313 1.000E-05 23:58:47.720 1.500E-01 0.500 F -0.241 0.246 +16° 31' 43.90" 1.000E-01 0.500 F 0.414 -0.027 21.5 R 0.70 0.41 o 691 0.51 Yes Yes
1999RV2 O C H 2018-12-10.20060 1.000E-05 00:11:47.180 1.500E-01 0.500 F -0.079 0.014 +13° 28' 23.20" 1.000E-01 0.500 F 0.361 0.694 19.4 R 0.70 0.09 o 691 1.39 Yes Yes
2018TX4 O C K 2018-12-10.20395 1.000E-05 00:04:23.170 1.500E-01 0.500 F -0.194 0.424 +15° 50' 21.90" 1.000E-01 0.500 F 0.406 -0.165 21.3 R 0.70 0.23 o 691 0.91 Yes Yes
2018VW1 O C K 2018-12-10.21152 1.000E-05 23:58:51.180 1.500E-01 0.500 F -0.241 0.132 +16° 31' 59.80" 1.000E-01 0.500 F 0.414 0.164 21.3 R 0.70 0.21 o 691 0.43 Yes Yes
1999RV2 O C H 2018-12-10.21774 1.000E-05 00:11:51.020 1.500E-01 0.500 F -0.079 0.032 +13° 28' 43.30" 1.000E-01 0.500 F 0.361 -0.121 o 691 0.25 Yes No
2018VG10 O C K 2018-12-10.22039 1.000E-05 02:13:51.750 1.500E-01 0.500 F -0.191 0.069 +08° 59' 43.60" 1.000E-01 0.500 F 0.228 0.434 o 691 0.93 Yes No
2010GT7 O C 2018-12-10.22787 1.000E-05 02:21:19.930 1.500E-01 0.500 F -0.251 -0.127 +11° 00' 53.30" 1.000E-01 0.500 F 0.312 -0.162 17.2 V 0.70 -0.10 o 691 0.41 Yes Yes
2017KE35 O C 2018-12-10.22959 1.000E-05 02:57:07.330 1.500E-01 0.500 F -0.325 -0.241 +08° 43' 31.30" 1.000E-01 0.500 F 0.309 0.148 20.3 V 0.70 -0.14 o 691 0.57 Yes Yes
2018VG10 O C K 2018-12-10.23121 1.000E-05 02:13:52.430 1.500E-01 0.500 F -0.191 0.310 +09° 00' 08.10" 1.000E-01 0.500 F 0.228 -0.326 20.5 R 0.70 -0.54 o 691 0.94 Yes Yes
2010GT7 O C 2018-12-10.23869 1.000E-05 02:21:15.070 1.500E-01 0.500 F -0.251 -0.004 +11° 01' 23.30" 1.000E-01 0.500 F 0.312 -0.106 17.3 V 0.70 0.00 o 691 0.21 Yes Yes
2017KE35 O C 2018-12-10.24013 1.000E-05 02:57:06.140 1.500E-01 0.500 F -0.325 -0.416 +08° 43' 43.60" 1.000E-01 0.500 F 0.309 -0.024 20.1 V 0.70 -0.34 o 691 0.84 Yes Yes
2018VG10 O C K 2018-12-10.24175 1.000E-05 02:13:53.040 1.500E-01 0.500 F -0.191 -0.252 +09° 00' 32.50" 1.000E-01 0.500 F 0.228 -0.516 21.2 R 0.70 0.16 o 691 1.21 Yes Yes
2010GT7 O C 2018-12-10.24923 1.000E-05 02:21:10.320 1.500E-01 0.500 F -0.251 -0.124 +11° 01' 52.50" 1.000E-01 0.500 F 0.312 -0.058 17.3 V 0.70 0.00 o 691 0.28 Yes Yes
2017KE35 O C 2018-12-10.25063 1.000E-05 02:57:05.000 1.500E-01 0.500 F -0.325 0.071 +08° 43' 56.00" 1.000E-01 0.500 F 0.309 -0.044 20.3 V 0.70 -0.14 o 691 0.17 Yes Yes
2018XN O C K 2018-12-10.25233 1.000E-05 03:22:16.650 1.500E-01 0.500 F -0.232 0.124 +17° 11' 45.20" 1.000E-01 0.500 F 0.411 -0.312 20.3 R 0.70 0.17 o 691 0.68 Yes Yes
1998YF10 O C 2018-12-10.25699 1.000E-05 03:08:48.860 1.500E-01 0.500 F -0.280 -0.192 -01° 58' 50.20" 1.000E-01 0.500 F 0.186 0.324 20.7 V 0.70 1.20 o 691 0.76 Yes Yes
2018NU3 O C K 2018-12-10.25866 1.000E-05 03:27:45.210 1.500E-01 0.500 F -0.182 0.054 -03° 55' 49.40" 1.000E-01 0.500 F 0.061 0.226 o 691 0.48 Yes No
2018XN O C K 2018-12-10.27122 1.000E-05 03:22:12.980 1.500E-01 0.500 F -0.232 -0.042 +17° 11' 42.10" 1.000E-01 0.500 F 0.411 -0.399 20.5 R 0.70 0.37 o 691 0.81 Yes Yes
1998YF10 O C 2018-12-10.27577 1.000E-05 03:08:48.460 1.500E-01 0.500 F -0.280 0.075 -01° 57' 24.80" 1.000E-01 0.500 F 0.186 -0.124 19.5 V 0.70 0.00 o 691 0.29 Yes Yes
2018NU3 O C K 2018-12-10.27744 1.000E-05 03:27:45.140 1.500E-01 0.500 F -0.182 0.198 -03° 55' 25.30" 1.000E-01 0.500 F 0.061 0.144 21.0 R 0.70 -0.42 o 691 0.49 Yes Yes
2018XN O C K 2018-12-10.29005 1.000E-05 03:22:09.360 1.500E-01 0.500 F -0.232 0.155 +17° 11' 38.90" 1.000E-01 0.500 F 0.411 -0.334 o 691 0.74 Yes No
1998YF10 O C 2018-12-10.29460 1.000E-05 03:08:48.050 1.500E-01 0.500 F -0.280 0.056 -01° 55' 58.70" 1.000E-01 0.500 F 0.186 -0.085 19.6 V 0.70 0.10 o 691 0.21 Yes Yes
2018NU3 O C K 2018-12-10.29627 1.000E-05 03:27:45.050 1.500E-01 0.500 F -0.182 -0.006 -03° 55' 01.60" 1.000E-01 0.500 F 0.061 -0.408 20.6 R 0.70 -0.82 o 691 0.85 Yes Yes
2015ME54 O C K 2018-12-10.31179 1.000E-05 04:56:59.510 1.500E-01 0.500 F 0.004 -0.549 +09° 40' 35.20" 1.000E-01 0.500 F 0.080 -0.193 o 691 1.17 Yes No
2018VN5 O C K 2018-12-10.31545 1.000E-05 04:08:20.140 1.500E-01 0.500 F -0.163 0.141 +04° 12' 26.50" 1.000E-01 0.500 F 0.172 -0.081 20.9 R 0.70 0.08 o 691 0.33 Yes Yes
2015HV171 O C 2018-12-10.31976 1.000E-05 05:03:01.670 1.500E-01 0.500 F -0.253 -0.113 -09° 50' 43.40" 1.000E-01 0.500 F 0.032 0.200 20.4 V 0.70 -0.50 o 691 0.46 Yes Yes
2016NN39 O C K 2018-12-10.31976 1.000E-05 05:02:25.720 1.500E-01 0.500 F -0.222 0.099 -09° 16' 52.40" 1.000E-01 0.500 F 0.050 -0.073 21.9 R 0.70 0.31 o 691 0.25 Yes Yes
2015ME54 O C K 2018-12-10.33003 1.000E-05 04:56:57.300 1.500E-01 0.500 F 0.004 -0.207 +09° 40' 46.20" 1.000E-01 0.500 F 0.080 -0.339 o 691 0.80 Yes No
2018VN5 O C K 2018-12-10.33353 1.000E-05 04:08:19.420 1.500E-01 0.500 F -0.163 0.236 +04° 11' 59.50" 1.000E-01 0.500 F 0.172 -0.046 20.7 R 0.70 -0.12 o 691 0.49 Yes Yes
2016NN39 O C K 2018-12-10.33767 1.000E-05 05:02:24.120 1.500E-01 0.500 F -0.222 -0.001 -09° 16' 53.70" 1.000E-01 0.500 F 0.050 -0.358 22.2 R 0.70 0.61 o 691 0.73 Yes Yes
2015HV171 O C 2018-12-10.33767 1.000E-05 05:03:00.150 1.500E-01 0.500 F -0.253 -0.229 -09° 51' 06.30" 1.000E-01 0.500 F 0.032 -0.328 20.7 V 0.70 -0.20 o 691 0.80 Yes Yes
2015ME54 O C K 2018-12-10.34796 1.000E-05 04:56:55.100 1.500E-01 0.500 F 0.004 -0.302 +09° 40' 57.30" 1.000E-01 0.500 F 0.080 -0.178 21.1 R 0.70 0.49 o 691 0.70 Yes Yes
2018VN5 O C K 2018-12-10.35146 1.000E-05 04:08:18.710 1.500E-01 0.500 F -0.163 -0.113 +04° 11' 32.80" 1.000E-01 0.500 F 0.172 0.104 o 691 0.31 Yes No
2015HV171 O C 2018-12-10.35555 1.000E-05 05:02:58.640 1.500E-01 0.500 F -0.253 -0.250 -09° 51' 28.20" 1.000E-01 0.500 F 0.032 0.086 20.8 V 0.70 -0.10 o 691 0.53 Yes Yes
2016NN39 O C K 2018-12-10.35555 1.000E-05 05:02:22.560 1.500E-01 0.500 F -0.222 0.436 -09° 16' 54.20" 1.000E-01 0.500 F 0.050 0.134 21.9 R 0.70 0.32 o 691 0.93 Yes Yes
2018VB9 O C H 2018-12-10.36759 1.000E-05 05:52:37.880 1.500E-01 0.500 F -0.200 -0.148 -18° 55' 58.10" 1.000E-01 0.500 F -0.114 0.009 19.0 R 0.70 0.16 o 691 0.30 Yes Yes
2014DE10 O C K 2018-12-10.36976 1.000E-05 06:44:13.580 1.500E-01 0.500 F -0.119 0.063 +00° 13' 44.50" 1.000E-01 0.500 F 0.104 -0.039 o 691 0.16 Yes No
2011OL5 O C H 2018-12-10.37979 1.000E-05 05:53:37.870 1.500E-01 0.500 F -0.125 -0.040 -12° 05' 34.60" 1.000E-01 0.500 F 0.070 -0.198 18.2 R 0.70 -0.37 o 691 0.41 Yes Yes
2018VB9 O C H 2018-12-10.38141 1.000E-05 05:52:37.910 1.500E-01 0.500 F -0.200 0.059 -18° 55' 36.10" 1.000E-01 0.500 F -0.114 -0.059 19.3 R 0.70 0.46 o 691 0.17 Yes Yes
2014DE10 O C K 2018-12-10.38342 1.000E-05 06:44:12.580 1.500E-01 0.500 F -0.119 -0.061 +00° 13' 50.40" 1.000E-01 0.500 F 0.104 -0.022 o 691 0.16 Yes No
2011OL5 O C H 2018-12-10.39345 1.000E-05 05:53:36.260 1.500E-01 0.500 F -0.125 0.013 -12° 05' 14.90" 1.000E-01 0.500 F 0.070 -0.055 18.5 R 0.70 -0.07 o 691 0.12 Yes Yes
2018VB9 O C H 2018-12-10.39507 1.000E-05 05:52:37.900 1.500E-01 0.500 F -0.200 -0.336 -18° 55' 14.10" 1.000E-01 0.500 F -0.114 0.065 19.0 R 0.70 0.16 o 691 0.69 Yes Yes
2014DE10 O C K 2018-12-10.39709 1.000E-05 06:44:11.590 1.500E-01 0.500 F -0.119 -0.021 +00° 13' 56.40" 1.000E-01 0.500 F 0.104 0.087 21.8 R 0.70 0.35 o 691 0.18 Yes Yes
2018XV O C H 2018-12-10.40763 1.000E-05 07:25:57.220 1.500E-01 0.500 F -0.076 -0.130 -02° 59' 30.50" 1.000E-01 0.500 F 0.113 -0.299 19.3 R 0.70 -0.34 o 691 0.66 Yes Yes
2018SB1 O C K 2018-12-10.40994 1.000E-05 07:43:57.510 1.500E-01 0.500 F 0.066 -0.146 +16° 06' 33.90" 1.000E-01 0.500 F 0.189 0.188 21.2 R 0.70 0.66 o 691 0.52 Yes Yes
2018XH O C K 2018-12-10.41552 1.000E-05 08:22:27.020 1.500E-01 0.500 F 0.071 -0.165 +22° 17' 03.90" 1.000E-01 0.500 F 0.248 0.022 18.8 R 0.70 -0.56 o 691 0.34 Yes Yes
2018XV O C H 2018-12-10.42114 1.000E-05 07:25:58.000 1.500E-01 0.500 F -0.076 -0.038 -02° 59' 23.50" 1.000E-01 0.500 F 0.113 -0.238 19.6 R 0.70 -0.04 o 691 0.49 Yes Yes
2018SB1 O C K 2018-12-10.42330 1.000E-05 07:43:56.340 1.500E-01 0.500 F 0.066 -0.399 +16° 06' 12.30" 1.000E-01 0.500 F 0.189 -0.342 20.9 R 0.70 0.36 o 691 1.17 Yes Yes
2018XH O C K 2018-12-10.42862 1.000E-05 08:22:31.160 1.500E-01 0.500 F 0.071 -0.329 +22° 16' 45.90" 1.000E-01 0.500 F 0.248 0.223 19.0 R 0.70 -0.36 o 691 0.80 Yes Yes
2018XV O C H 2018-12-10.43367 1.000E-05 07:25:58.710 1.500E-01 0.500 F -0.076 -0.169 -02° 59' 17.10" 1.000E-01 0.500 F 0.113 -0.290 19.9 R 0.70 0.26 o 691 0.68 Yes Yes
2018SB1 O C K 2018-12-10.43583 1.000E-05 07:43:55.280 1.500E-01 0.500 F 0.066 -0.110 +16° 05' 52.80" 1.000E-01 0.500 F 0.189 -0.011 20.6 R 0.70 0.06 o 691 0.24 Yes Yes
2018XH O C K 2018-12-10.44075 1.000E-05 08:22:35.020 1.500E-01 0.500 F 0.071 -0.109 +22° 16' 28.80" 1.000E-01 0.500 F 0.248 0.103 19.4 R 0.70 0.04 o 691 0.30 Yes Yes
2015YU7 O C K 2018-12-10.44692 1.000E-05 09:43:36.690 1.500E-01 0.500 F -0.029 -0.043 +02° 09' 28.60" 1.000E-01 0.500 F 0.234 -0.272 19.8 R 0.70 1.00 o 691 0.55 Yes Yes
2015YE21 O C K 2018-12-10.45082 1.000E-05 09:02:11.240 1.500E-01 0.500 F 0.047 -0.252 +20° 42' 45.00" 1.000E-01 0.500 F 0.214 -0.046 20.9 R 0.70 0.64 o 691 0.52 Yes Yes
2018VK10 O C K 2018-12-10.45719 1.000E-05 10:52:11.860 1.500E-01 0.500 F 0.072 0.086 -06° 52' 48.70" 1.000E-01 0.500 F 0.033 0.031 20.1 R 0.70 0.05 o 691 0.18 Yes Yes
2015YU7 O C K 2018-12-10.46204 1.000E-05 09:43:28.180 1.500E-01 0.500 F -0.029 -0.029 +02° 09' 14.40" 1.000E-01 0.500 F 0.234 -0.333 19.7 R 0.70 0.90 o 691 0.67 Yes Yes
2015YE21 O C K 2018-12-10.46590 1.000E-05 09:02:11.340 1.500E-01 0.500 F 0.047 -0.127 +20° 42' 18.80" 1.000E-01 0.500 F 0.214 -0.064 20.5 R 0.70 0.24 o 691 0.29 Yes Yes
2018VK10 O C K 2018-12-10.47227 1.000E-05 10:52:15.590 1.500E-01 0.500 F 0.072 0.240 -06° 54' 10.00" 1.000E-01 0.500 F 0.033 -0.482 o 691 1.10 Yes No
2015YU7 O C K 2018-12-10.47711 1.000E-05 09:43:19.670 1.500E-01 0.500 F -0.029 -0.255 +02° 09' 00.30" 1.000E-01 0.500 F 0.234 -0.318 o 691 0.82 Yes No
2015YE21 O C K 2018-12-10.48131 1.000E-05 09:02:11.430 1.500E-01 0.500 F 0.047 -0.154 +20° 41' 52.10" 1.000E-01 0.500 F 0.214 0.069 20.4 R 0.70 0.14 o 691 0.34 Yes Yes
2018VK10 O C K 2018-12-10.48802 1.000E-05 10:52:19.450 1.500E-01 0.500 F 0.072 -0.076 -06° 55' 33.70" 1.000E-01 0.500 F 0.033 0.188 20.4 R 0.70 0.35 o 691 0.41 Yes Yes
2018VG8 O C K 2018-12-10.50449 1.000E-05 11:42:04.320 1.500E-01 0.500 F 0.452 -0.419 -00° 05' 52.80" 1.000E-01 0.500 F 0.039 0.488 21.5 R 0.70 0.26 o 691 1.29 Yes Yes
2018VG8 O C K 2018-12-10.52262 1.000E-05 11:42:06.900 1.500E-01 0.500 F 0.452 -0.022 -00° 06' 04.00" 1.000E-01 0.500 F 0.039 0.004 21.3 R 0.70 0.06 o 691 0.05 Yes Yes
2018VG8 O C K 2018-12-10.54072 1.000E-05 11:42:09.470 1.500E-01 0.500 F 0.452 0.326 -00° 06' 14.50" 1.000E-01 0.500 F 0.039 0.198 o 691 0.77 Yes No
1999RV2 O C H 2018-12-12.14035 1.000E-05 00:19:10.050 1.500E-01 0.500 F -0.147 0.074 +14° 07' 39.00" 1.000E-01 0.500 F 0.416 -0.194 o 691 0.42 Yes No
1999RV2 O C H 2018-12-12.14175 1.000E-05 00:19:10.350 1.500E-01 0.500 F -0.147 -0.082 +14° 07' 40.60" 1.000E-01 0.500 F 0.416 -0.261 o 691 0.55 Yes No
1999RV2 O C H 2018-12-12.14314 1.000E-05 00:19:10.660 1.500E-01 0.500 F -0.147 -0.061 +14° 07' 42.70" 1.000E-01 0.500 F 0.416 0.185 o 691 0.39 Yes No
2018XN O C K 2018-12-12.21622 1.000E-05 03:16:40.900 1.500E-01 0.500 F -0.309 -0.198 +17° 07' 22.60" 1.000E-01 0.500 F 0.333 0.214 o 691 0.59 Yes No
2018XN O C K 2018-12-12.22052 1.000E-05 03:16:40.040 1.500E-01 0.500 F -0.309 0.249 +17° 07' 21.70" 1.000E-01 0.500 F 0.333 -0.133 o 691 0.57 Yes No
2018XN O C K 2018-12-12.22483 1.000E-05 03:16:39.130 1.500E-01 0.500 F -0.309 0.012 +17° 07' 21.00" 1.000E-01 0.500 F 0.333 -0.264 o 691 0.53 Yes No
2018WP2 O C K 2018-12-12.23673 1.000E-05 02:14:26.520 1.500E-01 0.500 F -0.105 0.541 +25° 31' 05.20" 1.000E-01 0.500 F 0.312 -0.394 20.3 R 0.70 0.23 o 691 1.37 Yes Yes
2018WP2 O C K 2018-12-12.24604 1.000E-05 02:14:28.780 1.500E-01 0.500 F -0.105 -0.327 +25° 31' 25.10" 1.000E-01 0.500 F 0.312 0.099 20.1 R 0.70 0.02 o 691 0.70 Yes Yes
2018WP2 O C K 2018-12-12.25536 1.000E-05 02:14:31.160 1.500E-01 0.500 F -0.105 0.364 +25° 31' 44.30" 1.000E-01 0.500 F 0.312 -0.075 21.1 R 0.70 1.02 o 691 0.76 Yes Yes
2001JU2 O C 2018-12-12.27592 1.000E-05 05:01:08.050 1.500E-01 0.500 F -0.272 -0.331 +18° 34' 50.00" 1.000E-01 0.500 F 0.263 -0.121 o 691 0.71 Yes No
2018XA O C K 2018-12-12.27592 1.000E-05 05:05:04.060 1.500E-01 0.500 F -0.326 0.065 +18° 18' 42.00" 1.000E-01 0.500 F 0.189 -0.054 o 691 0.17 Yes No
2001JU2 O C 2018-12-12.28162 1.000E-05 05:01:07.370 1.500E-01 0.500 F -0.272 -0.767 +18° 34' 51.10" 1.000E-01 0.500 F 0.263 -0.360 o 691 1.70 Yes No
2018XA O C K 2018-12-12.28162 1.000E-05 05:05:05.110 1.500E-01 0.500 F -0.326 0.152 +18° 18' 36.80" 1.000E-01 0.500 F 0.189 -0.169 o 691 0.46 Yes No
2001JU2 O C 2018-12-12.28733 1.000E-05 05:01:06.740 1.500E-01 0.500 F -0.272 -0.475 +18° 34' 53.60" 1.000E-01 0.500 F 0.263 0.805 o 691 1.87 Yes No
2015YE21 O C K 2018-12-12.51046 1.000E-05 09:02:33.780 1.500E-01 0.500 F 0.085 0.229 +19° 42' 30.50" 1.000E-01 0.500 F 0.252 -0.112 20.1 R 0.70 -0.08 o 691 0.52 Yes Yes
2015YE21 O C K 2018-12-12.51575 1.000E-05 09:02:33.720 1.500E-01 0.500 F 0.085 -0.369 +19° 42' 21.20" 1.000E-01 0.500 F 0.252 0.035 19.4 R 0.70 -0.78 o 691 0.75 Yes Yes
2015YE21 O C K 2018-12-12.52103 1.000E-05 09:02:33.710 1.500E-01 0.500 F 0.085 -0.269 +19° 42' 11.90" 1.000E-01 0.500 F 0.252 0.173 20.0 R 0.70 -0.18 o 691 0.65 Yes Yes
2014AA33 O C K 2018-12-12.52808 1.000E-05 10:07:53.820 1.500E-01 0.500 F 0.119 0.269 +15° 42' 47.40" 1.000E-01 0.500 F 0.170 0.254 21.2 R 0.70 0.46 o 691 0.74 Yes Yes
2014AA33 O C K 2018-12-12.53608 1.000E-05 10:07:55.440 1.500E-01 0.500 F 0.119 0.003 +15° 42' 51.00" 1.000E-01 0.500 F 0.170 -0.085 20.7 R 0.70 -0.04 o 691 0.17 Yes Yes
2014AA33 O C K 2018-12-12.54408 1.000E-05 10:07:57.100 1.500E-01 0.500 F 0.119 0.306 +15° 42' 55.80" 1.000E-01 0.500 F 0.170 0.782 20.5 R 0.70 -0.24 o 691 1.68 Yes Yes
2018TO6 O C K 2018-12-13.09886 1.000E-05 23:13:16.410 1.500E-01 0.500 F -0.038 1.051 +22° 44' 34.30" 1.000E-01 0.500 F 0.358 0.528 o 691 2.38 Yes No
2018TO6 O C K 2018-12-13.11019 1.000E-05 23:13:19.220 1.500E-01 0.500 F -0.038 0.520 +22° 44' 44.50" 1.000E-01 0.500 F 0.358 -0.412 o 691 1.34 Yes No
2018TO6 O C K 2018-12-13.12153 1.000E-05 23:13:22.020 1.500E-01 0.500 F -0.038 -0.213 +22° 44' 55.60" 1.000E-01 0.500 F 0.358 -0.437 21.5 R 0.70 0.12 o 691 0.98 Yes Yes
2018LB1 O C K 2018-12-13.14145 1.000E-05 00:41:59.690 1.500E-01 0.500 F -0.294 0.125 +07° 02' 22.30" 1.000E-01 0.500 F 0.225 -0.101 21.5 R 0.70 0.20 o 691 0.32 Yes Yes
2011WM46 O C K 2018-12-13.15096 1.000E-05 01:09:07.110 1.500E-01 0.500 F -0.281 -0.379 +13° 18' 57.70" 1.000E-01 0.500 F 0.375 -0.413 20.0 R 0.70 0.02 o 691 1.13 Yes Yes
2008RT26 O C 2018-12-13.15096 1.000E-05 01:10:25.550 1.500E-01 0.500 F -0.281 -0.430 +13° 30' 48.30" 1.000E-01 0.500 F 0.375 -0.003 19.6 V 0.70 -0.11 o 691 0.87 Yes Yes
2018UY O C K 2018-12-13.15562 1.000E-05 01:24:59.770 1.500E-01 0.500 F -0.258 0.486 +08° 03' 32.10" 1.000E-01 0.500 F 0.345 0.039 21.0 R 0.70 0.33 o 691 0.98 Yes Yes
2018LB1 O C K 2018-12-13.16266 1.000E-05 00:42:03.870 1.500E-01 0.500 F -0.294 0.060 +07° 02' 47.00" 1.000E-01 0.500 F 0.225 0.174 21.5 R 0.70 0.20 o 691 0.37 Yes Yes
2011WM46 O C K 2018-12-13.17217 1.000E-05 01:09:12.720 1.500E-01 0.500 F -0.281 0.326 +13° 18' 27.20" 1.000E-01 0.500 F 0.375 -0.157 20.2 R 0.70 0.22 o 691 0.73 Yes Yes
2008RT26 O C 2018-12-13.17217 1.000E-05 01:10:29.680 1.500E-01 0.500 F -0.281 -0.061 +13° 31' 14.10" 1.000E-01 0.500 F 0.375 0.044 19.5 V 0.70 -0.21 o 691 0.15 Yes Yes
2018UY O C K 2018-12-13.17662 1.000E-05 01:24:56.340 1.500E-01 0.500 F -0.258 0.013 +08° 03' 17.40" 1.000E-01 0.500 F 0.345 -0.248 20.7 R 0.70 0.03 o 691 0.50 Yes Yes
2018LB1 O C K 2018-12-13.18367 1.000E-05 00:42:08.040 1.500E-01 0.500 F -0.294 0.397 +07° 03' 10.90" 1.000E-01 0.500 F 0.225 -0.087 22.5 R 0.70 1.20 o 691 0.83 Yes Yes
2011WM46 O C K 2018-12-13.19318 1.000E-05 01:09:18.240 1.500E-01 0.500 F -0.281 0.448 +13° 17' 56.70" 1.000E-01 0.500 F 0.375 -0.152 20.1 R 0.70 0.12 o 691 0.96 Yes Yes
2008RT26 O C 2018-12-13.19318 1.000E-05 01:10:33.740 1.500E-01 0.500 F -0.281 -0.230 +13° 31' 39.60" 1.000E-01 0.500 F 0.375 0.111 19.6 V 0.70 -0.11 o 691 0.51 Yes Yes
2018UY O C K 2018-12-13.19763 1.000E-05 01:24:52.950 1.500E-01 0.500 F -0.258 0.062 +08° 03' 03.30" 1.000E-01 0.500 F 0.345 0.105 20.3 R 0.70 -0.37 o 691 0.24 Yes Yes
2018XN O C K 2018-12-13.21182 1.000E-05 03:13:41.480 1.500E-01 0.500 F -0.327 -0.287 +17° 05' 12.80" 1.000E-01 0.500 F 0.265 -0.128 20.3 R 0.70 0.25 o 691 0.63 Yes Yes
2018XN O C K 2018-12-13.22600 1.000E-05 03:13:38.460 1.500E-01 0.500 F -0.327 0.008 +17° 05' 10.70" 1.000E-01 0.500 F 0.265 -0.386 20.6 R 0.70 0.55 o 691 0.78 Yes Yes
2018XN O C K 2018-12-13.24004 1.000E-05 03:13:35.430 1.500E-01 0.500 F -0.327 -0.276 +17° 05' 08.90" 1.000E-01 0.500 F 0.265 -0.198 20.6 R 0.70 0.55 o 691 0.68 Yes Yes
2015CZ O C K 2018-12-13.25163 1.000E-05 03:38:10.790 1.500E-01 0.500 F -0.260 -0.098 -24° 55' 17.00" 1.000E-01 0.500 F 0.117 0.079 o 691 0.29 Yes No
2018VN5 O C K 2018-12-13.26655 1.000E-05 04:08:17.970 1.500E-01 0.500 F -0.197 -0.124 +03° 07' 07.30" 1.000E-01 0.500 F 0.181 -0.081 o 691 0.30 Yes No
2018VN5 O C K 2018-12-13.29478 1.000E-05 04:08:17.080 1.500E-01 0.500 F -0.197 0.022 +03° 06' 33.50" 1.000E-01 0.500 F 0.181 -0.436 o 691 0.88 Yes No
2015CZ O C K 2018-12-13.30829 1.000E-05 03:38:06.250 1.500E-01 0.500 F -0.256 0.167 -24° 52' 01.90" 1.000E-01 0.500 F 0.100 -0.094 o 691 0.44 Yes No
2018VN5 O C K 2018-12-13.32298 1.000E-05 04:08:16.230 1.500E-01 0.500 F -0.197 0.054 +03° 06' 00.50" 1.000E-01 0.500 F 0.181 0.036 o 691 0.13 Yes No
2000AA6 O C K 2018-12-13.40571 1.000E-05 08:56:38.520 1.500E-01 0.500 F 0.059 -0.659 +18° 21' 20.00" 1.000E-01 0.500 F 0.206 0.313 o 691 1.47 Yes No
2014AA33 O C K 2018-12-13.42443 1.000E-05 10:11:03.260 1.500E-01 0.500 F 0.119 -0.059 +15° 50' 19.30" 1.000E-01 0.500 F 0.170 -0.101 21.0 R 0.70 0.30 o 691 0.24 Yes Yes
2000AA6 O C K 2018-12-13.43557 1.000E-05 08:56:44.490 1.500E-01 0.500 F 0.059 -1.325 +18° 20' 47.50" 1.000E-01 0.500 F 0.206 0.274 o 691 2.73 Yes No
2014AA33 O C K 2018-12-13.45431 1.000E-05 10:11:09.540 1.500E-01 0.500 F 0.119 0.387 +15° 50' 34.50" 1.000E-01 0.500 F 0.170 -0.506 20.9 R 0.70 0.21 o 691 1.28 Yes Yes
2000AA6 O C K 2018-12-13.46596 1.000E-05 08:56:50.700 1.500E-01 0.500 F 0.059 -0.104 +18° 20' 13.10" 1.000E-01 0.500 F 0.206 -0.746 o 691 1.51 Yes No
2014AA33 O C K 2018-12-13.48521 1.000E-05 10:11:15.970 1.500E-01 0.500 F 0.119 -0.023 +15° 50' 51.30" 1.000E-01 0.500 F 0.170 0.228 o 691 0.46 Yes No
2018RJ7 O C K 2018-12-13.50684 1.000E-05 11:45:11.000 1.500E-01 0.500 F 0.214 0.226 -07° 42' 59.50" 1.000E-01 0.500 F -0.009 -1.113 o 691 2.28 Yes No
2018RJ7 O C K 2018-12-13.52033 1.000E-05 11:45:12.400 1.500E-01 0.500 F 0.214 0.912 -07° 42' 49.80" 1.000E-01 0.500 F -0.009 0.068 o 691 1.84 Yes No
2018RJ7 O C K 2018-12-13.53381 1.000E-05 11:45:13.660 1.500E-01 0.500 F 0.214 -0.399 -07° 42' 42.00" 1.000E-01 0.500 F -0.009 -0.666 o 691 1.56 Yes No
2018PF8 O C K 2018-12-14.06579 1.000E-05 23:25:39.170 1.500E-01 0.500 F -0.162 0.344 -25° 13' 50.30" 1.000E-01 0.500 F 0.510 0.102 o 691 0.80 Yes No
2018PF8 O C K 2018-12-14.07514 1.000E-05 23:25:41.890 1.500E-01 0.500 F -0.162 0.428 -25° 13' 49.00" 1.000E-01 0.500 F 0.510 0.001 o 691 0.96 Yes No
2018PF8 O C K 2018-12-14.08451 1.000E-05 23:25:44.570 1.500E-01 0.500 F -0.162 -0.108 -25° 13' 47.60" 1.000E-01 0.500 F 0.510 -0.019 o 691 0.24 Yes No
2018XC20 O C K 2018-12-14.10467 1.000E-05 03:10:19.870 1.500E-01 0.500 F -0.292 -0.295 -00° 18' 48.40" 1.000E-01 0.500 F 0.307 -0.025 22.0 R 0.70 0.44 o 691 0.88 Yes Yes
2018XC20 O C K 2018-12-14.13560 1.000E-05 03:10:20.620 1.500E-01 0.500 F -0.292 0.291 -00° 18' 27.60" 1.000E-01 0.500 F 0.307 0.013 21.7 R 0.70 0.14 o 691 0.88 Yes Yes
2018XM2 O C K 2018-12-14.14733 1.000E-05 02:47:34.730 1.500E-01 0.500 F -0.188 -0.077 -20° 00' 36.60" 1.000E-01 0.500 F -0.181 0.186 19.6 R 0.70 -0.31 o 691 0.46 Yes Yes
2018XM2 O C K 2018-12-14.15317 1.000E-05 02:47:35.400 1.500E-01 0.500 F -0.188 0.087 -20° 04' 07.90" 1.000E-01 0.500 F -0.181 1.073 20.6 R 0.70 0.68 o 691 2.48 Yes Yes
2018XB4 O C K 2018-12-14.16753 1.000E-05 03:35:15.030 1.500E-01 0.500 F -0.300 -0.128 +00° 29' 47.30" 1.000E-01 0.500 F 0.257 -0.037 20.9 R 0.70 0.28 o 691 0.27 Yes Yes
2018XB4 O C K 2018-12-14.17115 1.000E-05 03:35:13.820 1.500E-01 0.500 F -0.300 -0.080 +00° 29' 55.30" 1.000E-01 0.500 F 0.257 -0.223 20.8 R 0.70 0.18 o 691 0.48 Yes Yes
2018XB4 O C K 2018-12-14.17476 1.000E-05 03:35:12.560 1.500E-01 0.500 F -0.300 -0.820 +00° 30' 03.30" 1.000E-01 0.500 F 0.257 -0.387 20.4 R 0.70 -0.22 o 691 1.82 Yes Yes
2018XE4 O C K 2018-12-14.19778 1.000E-05 03:52:39.540 1.500E-01 0.500 F -0.198 -0.762 +23° 28' 56.50" 1.000E-01 0.500 F 0.278 -0.304 20.8 R 0.70 -0.72 o 691 1.67 Yes Yes
2018XE4 O C K 2018-12-14.22835 1.000E-05 03:52:33.170 1.500E-01 0.500 F -0.198 -1.834 +23° 27' 39.10" 1.000E-01 0.500 F 0.278 -0.722 21.8 R 0.70 0.29 o 691 3.87 No Yes
2018XE4 O C K 2018-12-14.25888 1.000E-05 03:52:26.880 1.500E-01 0.500 F -0.198 -1.245 +23° 26' 20.30" 1.000E-01 0.500 F 0.278 -0.683 21.5 R 0.70 -0.01 o 691 2.90 Yes Yes
2018XF5 O C K 2018-12-14.37839 1.000E-05 04:34:55.400 1.500E-01 0.500 F -0.223 0.320 +02° 23' 50.10" 1.000E-01 0.500 F 0.170 -0.367 22.1 R 0.70 0.41 o 691 0.98 Yes Yes
2018XF5 O C K 2018-12-14.39256 1.000E-05 04:34:54.200 1.500E-01 0.500 F -0.223 0.079 +02° 23' 24.40" 1.000E-01 0.500 F 0.170 -0.133 22.0 R 0.70 0.31 o 691 0.31 Yes Yes
2018XF5 O C K 2018-12-14.40672 1.000E-05 04:34:53.040 1.500E-01 0.500 F -0.223 0.263 +02° 22' 58.60" 1.000E-01 0.500 F 0.170 -0.017 21.9 R 0.70 0.21 o 691 0.53 Yes Yes
2018XG5 O C K 2018-12-14.44927 1.000E-05 04:46:26.240 1.500E-01 0.500 F -0.136 -0.194 +01° 07' 43.80" 1.000E-01 0.500 F 0.247 0.664 21.0 R 0.70 0.15 o 691 1.38 Yes Yes
2018XG5 O C K 2018-12-14.46145 1.000E-05 04:46:25.010 1.500E-01 0.500 F -0.136 0.530 +01° 07' 28.70" 1.000E-01 0.500 F 0.247 -0.209 21.0 R 0.70 0.15 o 691 1.14 Yes Yes
2018XQ4 O C K 2018-12-14.48774 1.000E-05 10:10:36.230 1.500E-01 0.500 F 0.235 -0.118 +04° 24' 52.60" 1.000E-01 0.500 F 0.161 -0.499 21.3 R 0.70 0.32 o 691 1.03 Yes Yes
2018XL5 O C K 2018-12-14.49186 1.000E-05 10:32:15.770 1.500E-01 0.500 F 0.232 -0.247 +06° 47' 29.10" 1.000E-01 0.500 F 0.159 -0.414 21.7 R 0.70 0.12 o 691 0.98 Yes Yes
2018XQ4 O C K 2018-12-14.50190 1.000E-05 10:10:39.180 1.500E-01 0.500 F 0.235 0.153 +04° 24' 38.60" 1.000E-01 0.500 F 0.161 -0.126 21.6 R 0.70 0.62 o 691 0.40 Yes Yes
2018XL5 O C K 2018-12-14.50598 1.000E-05 10:32:15.930 1.500E-01 0.500 F 0.232 -0.173 +06° 46' 54.00" 1.000E-01 0.500 F 0.159 -0.215 21.7 R 0.70 0.12 o 691 0.56 Yes Yes
2018XQ4 O C K 2018-12-14.51587 1.000E-05 10:10:42.050 1.500E-01 0.500 F 0.235 -0.187 +04° 24' 24.80" 1.000E-01 0.500 F 0.161 0.263 21.0 R 0.70 0.02 o 691 0.65 Yes Yes
2018XL5 O C K 2018-12-14.51997 1.000E-05 10:32:16.120 1.500E-01 0.500 F 0.232 0.391 +06° 46' 19.20" 1.000E-01 0.500 F 0.159 -0.033 21.3 R 0.70 -0.28 o 691 0.80 Yes Yes
2018XY3 O C K 2018-12-14.53281 1.000E-05 12:19:47.400 1.500E-01 0.500 F 0.205 0.091 +20° 48' 08.00" 1.000E-01 0.500 F 0.255 -0.091 o 691 0.26 Yes No
2018XY3 O C K 2018-12-14.53900 1.000E-05 12:19:50.170 1.500E-01 0.500 F 0.205 -0.129 +20° 48' 03.40" 1.000E-01 0.500 F 0.255 0.209 o 691 0.49 Yes No
2018XY3 O C K 2018-12-14.54519 1.000E-05 12:19:52.970 1.500E-01 0.500 F 0.205 0.076 +20° 47' 58.50" 1.000E-01 0.500 F 0.255 0.217 o 691 0.46 Yes No
2018XG5 O C K 2018-12-16.29146 1.000E-05 04:43:15.780 1.500E-01 0.500 F -0.229 0.891 +00° 32' 06.40" 1.000E-01 0.500 F 0.241 0.265 21.7 R 0.70 0.87 o 691 1.86 Yes Yes
2018XG5 O C K 2018-12-16.29750 1.000E-05 04:43:15.070 1.500E-01 0.500 F -0.229 0.122 +00° 31' 59.00" 1.000E-01 0.500 F 0.241 -0.173 21.1 R 0.70 0.27 o 691 0.42 Yes Yes
2018XG5 O C K 2018-12-16.30868 1.000E-05 04:43:13.780 1.500E-01 0.500 F -0.229 -0.946 +00° 31' 46.20" 1.000E-01 0.500 F 0.241 -0.086 21.6 R 0.70 0.77 o 691 1.90 Yes Yes
2010GJ23 O C 2018-12-16.33647 1.000E-05 04:25:52.910 1.500E-01 0.500 F -0.176 -0.161 -22° 34' 24.80" 1.000E-01 0.500 F 0.212 0.132 o 691 0.42 Yes No
2010GJ23 O C 2018-12-16.33958 1.000E-05 04:25:52.960 1.500E-01 0.500 F -0.176 -0.078 -22° 34' 17.40" 1.000E-01 0.500 F 0.212 -0.018 o 691 0.16 Yes No
2010GJ23 O C 2018-12-16.34269 1.000E-05 04:25:53.000 1.500E-01 0.500 F -0.176 -0.137 -22° 34' 09.90" 1.000E-01 0.500 F 0.212 -0.070 o 691 0.31 Yes No
2018VK10 O C K 2018-12-17.50793 1.000E-05 11:22:39.950 1.500E-01 0.500 F 0.189 0.370 -17° 26' 02.20" 1.000E-01 0.500 F -0.037 0.393 20.0 R 0.70 -0.05 o 691 1.10 Yes Yes
2018VK10 O C K 2018-12-17.51190 1.000E-05 11:22:40.960 1.500E-01 0.500 F 0.189 0.022 -17° 26' 24.10" 1.000E-01 0.500 F -0.037 -0.271 20.3 R 0.70 0.25 o 691 0.56 Yes Yes
2018VK10 O C K 2018-12-17.51586 1.000E-05 11:22:42.020 1.500E-01 0.500 F 0.189 0.429 -17° 26' 45.40" 1.000E-01 0.500 F -0.037 -0.392 20.6 R 0.70 0.55 o 691 1.19 Yes Yes
2018XH O C H 2018-12-17.53345 1.000E-05 09:06:52.340 1.500E-01 0.500 F 0.100 0.017 +18° 42' 31.30" 1.000E-01 0.500 F 0.195 0.047 19.0 R 0.70 -0.04 o 691 0.10 Yes Yes
2018XH O C H 2018-12-17.53655 1.000E-05 09:06:53.490 1.500E-01 0.500 F 0.100 -0.807 +18° 42' 23.90" 1.000E-01 0.500 F 0.195 -0.152 19.3 R 0.70 0.26 o 691 1.65 Yes Yes
2018XD5 O C K 2018-12-17.53977 1.000E-05 07:40:47.390 1.500E-01 0.500 F -0.045 0.244 +25° 58' 56.00" 1.000E-01 0.500 F 0.201 -0.239 o 691 0.69 Yes No
1986DA O C 2018-12-17.53977 1.000E-05 07:36:09.770 1.500E-01 0.500 F -0.050 -0.281 +26° 17' 47.00" 1.000E-01 0.500 F 0.207 -0.159 18.1 V 0.70 0.08 o 691 0.65 Yes Yes
2018XD5 O C K 2018-12-17.54459 1.000E-05 07:40:44.400 1.500E-01 0.500 F -0.045 -2.683 +25° 58' 51.00" 1.000E-01 0.500 F 0.201 0.865 o 691 5.57 No No
1986DA O C 2018-12-17.54459 1.000E-05 07:36:09.610 1.500E-01 0.500 F -0.050 -0.331 +26° 17' 48.80" 1.000E-01 0.500 F 0.207 -0.029 18.1 V 0.70 0.08 o 691 0.67 Yes Yes
2018XD5 O C K 2018-12-17.54940 1.000E-05 07:40:41.790 1.500E-01 0.500 F -0.045 -0.621 +25° 58' 44.10" 1.000E-01 0.500 F 0.201 0.081 o 691 1.27 Yes No
1986DA O C 2018-12-17.54940 1.000E-05 07:36:09.450 1.500E-01 0.500 F -0.050 -0.391 +26° 17' 50.70" 1.000E-01 0.500 F 0.207 0.205 18.1 V 0.70 0.08 o 691 0.88 Yes Yes
2017BP5 O C 2018-12-18.25187 1.000E-05 05:50:05.550 1.500E-01 0.500 F -0.296 0.327 -01° 29' 37.30" 1.000E-01 0.500 F 0.070 0.288 20.2 V 0.70 0.72 o 691 0.88 Yes Yes
2017BP5 O C 2018-12-18.25652 1.000E-05 05:50:04.040 1.500E-01 0.500 F -0.296 -0.553 -01° 29' 38.40" 1.000E-01 0.500 F 0.070 0.395 19.3 V 0.70 -0.18 o 691 1.37 Yes Yes
2017BP5 O C 2018-12-18.26118 1.000E-05 05:50:02.610 1.500E-01 0.500 F -0.296 -0.186 -01° 29' 40.00" 1.000E-01 0.500 F 0.070 0.002 19.3 V 0.70 -0.18 o 691 0.38 Yes Yes
1986DA O C 2018-12-18.32563 1.000E-05 07:35:45.720 1.500E-01 0.500 F -0.050 -0.239 +26° 22' 36.50" 1.000E-01 0.500 F 0.207 -0.183 o 691 0.60 Yes No
1986DA O C 2018-12-18.33286 1.000E-05 07:35:45.450 1.500E-01 0.500 F -0.050 -0.392 +26° 22' 39.20" 1.000E-01 0.500 F 0.207 -0.212 o 691 0.89 Yes No
1986DA O C 2018-12-18.34009 1.000E-05 07:35:45.200 1.500E-01 0.500 F -0.050 -0.270 +26° 22' 41.90" 1.000E-01 0.500 F 0.207 -0.234 o 691 0.72 Yes No
2018VK10 O C K 2018-12-18.45647 1.000E-05 11:26:54.630 1.500E-01 0.500 F 0.363 0.533 -18° 50' 12.60" 1.000E-01 0.500 F 0.004 -0.523 o 691 1.54 Yes No
2018VK10 O C K 2018-12-18.46044 1.000E-05 11:26:55.660 1.500E-01 0.500 F 0.363 0.301 -18° 50' 33.00" 1.000E-01 0.500 F 0.004 0.198 o 691 0.74 Yes No
2018VK10 O C K 2018-12-18.46440 1.000E-05 11:26:56.700 1.500E-01 0.500 F 0.363 0.253 -18° 50' 54.00" 1.000E-01 0.500 F 0.004 0.262 o 691 0.74 Yes No
2007VD12 O C 2018-12-19.06597 1.000E-05 22:22:01.350 1.500E-01 0.500 F -0.037 -0.379 +05° 05' 09.10" 1.000E-01 0.500 F 0.376 0.423 20.8 V 0.70 0.73 o 691 1.17 Yes Yes
2007VD12 O C 2018-12-19.07654 1.000E-05 22:21:58.800 1.500E-01 0.500 F -0.037 -0.514 +05° 05' 50.50" 1.000E-01 0.500 F 0.376 -0.537 20.1 V 0.70 0.03 o 691 1.49 Yes Yes
2007VD12 O C 2018-12-19.08710 1.000E-05 22:21:56.270 1.500E-01 0.500 F -0.037 -0.446 +05° 06' 33.60" 1.000E-01 0.500 F 0.376 0.263 20.2 V 0.70 0.13 o 691 1.07 Yes Yes
2018XZ1 O C 2018-12-19.09914 1.000E-05 22:59:32.130 1.500E-01 0.500 F -0.179 0.019 +17° 50' 54.60" 1.000E-01 0.500 F 0.350 -0.798 20.0 V 0.70 -0.17 o 691 1.61 Yes Yes
2018XZ1 O C 2018-12-19.10877 1.000E-05 22:59:30.770 1.500E-01 0.500 F -0.179 -0.536 +17° 51' 52.50" 1.000E-01 0.500 F 0.350 -0.229 19.7 V 0.70 -0.47 o 691 1.17 Yes Yes
2018XZ1 O C 2018-12-19.11842 1.000E-05 22:59:29.480 1.500E-01 0.500 F -0.179 -0.097 +17° 52' 50.00" 1.000E-01 0.500 F 0.350 -0.133 20.0 V 0.70 -0.17 o 691 0.33 Yes Yes
2018XH O C 2018-12-19.28927 1.000E-05 09:19:17.710 1.500E-01 0.500 F 0.026 -0.281 +17° 32' 29.60" 1.000E-01 0.500 F 0.174 0.033 20.3 V 0.70 0.91 o 691 0.57 Yes Yes
2018XH O C 2018-12-19.29288 1.000E-05 09:19:19.240 1.500E-01 0.500 F 0.026 0.079 +17° 32' 20.80" 1.000E-01 0.500 F 0.174 -0.034 19.7 V 0.70 0.31 o 691 0.17 Yes Yes
2018XH O C 2018-12-19.29650 1.000E-05 09:19:20.720 1.500E-01 0.500 F 0.026 -0.312 +17° 32' 12.10" 1.000E-01 0.500 F 0.174 0.031 20.0 V 0.70 0.61 o 691 0.63 Yes Yes
2000AA6 O C K 2018-12-19.30101 1.000E-05 09:21:01.280 1.500E-01 0.500 F 0.052 -0.088 +16° 05' 52.90" 1.000E-01 0.500 F 0.297 -0.125 21.4 R 0.70 0.87 o 691 0.31 Yes Yes
2000AA6 O C K 2018-12-19.31755 1.000E-05 09:21:05.970 1.500E-01 0.500 F 0.052 -0.383 +16° 05' 25.40" 1.000E-01 0.500 F 0.297 0.356 21.7 R 0.70 1.17 o 691 1.06 Yes Yes
2000AA6 O C K 2018-12-19.33410 1.000E-05 09:21:10.670 1.500E-01 0.500 F 0.052 -0.393 +16° 04' 56.60" 1.000E-01 0.500 F 0.297 -0.345 21.3 R 0.70 0.77 o 691 1.05 Yes Yes
2018YU O C K 2018-12-19.35414 1.000E-05 09:04:06.640 1.500E-01 0.500 F 0.062 -0.223 -07° 23' 27.00" 1.000E-01 0.500 F 0.005 -0.357 o 691 0.84 Yes No
2018YU O C K 2018-12-19.37921 1.000E-05 09:04:08.390 1.500E-01 0.500 F 0.062 -0.283 -07° 24' 16.30" 1.000E-01 0.500 F 0.005 -0.208 o 691 0.70 Yes No
2018YU O C K 2018-12-19.40421 1.000E-05 09:04:10.170 1.500E-01 0.500 F 0.062 0.296 -07° 25' 05.80" 1.000E-01 0.500 F 0.005 -0.409 o 691 1.01 Yes No
2018XV O C 2018-12-19.49622 1.000E-05 07:36:31.550 1.500E-01 0.500 F -0.082 -0.292 -00° 42' 26.20" 1.000E-01 0.500 F -0.005 -0.110 19.3 V 0.70 0.10 o 691 0.63 Yes Yes
2018XV O C 2018-12-19.50295 1.000E-05 07:36:32.050 1.500E-01 0.500 F -0.082 -0.021 -00° 42' 16.70" 1.000E-01 0.500 F -0.005 -0.093 19.3 V 0.70 0.10 o 691 0.19 Yes Yes
2018XV O C 2018-12-19.50970 1.000E-05 07:36:32.520 1.500E-01 0.500 F -0.082 -0.250 -00° 42' 07.10" 1.000E-01 0.500 F -0.005 -0.011 19.4 V 0.70 0.20 o 691 0.51 Yes Yes
2018VK10 O C K 2018-12-19.52006 1.000E-05 11:31:41.960 1.500E-01 0.500 F 0.268 0.122 -20° 23' 46.40" 1.000E-01 0.500 F -0.096 0.210 o 691 0.50 Yes No
2018VK10 O C K 2018-12-19.52247 1.000E-05 11:31:42.580 1.500E-01 0.500 F 0.268 -0.147 -20° 23' 59.10" 1.000E-01 0.500 F -0.096 0.177 20.7 R 0.70 0.63 o 691 0.47 Yes Yes
2018VK10 O C K 2018-12-19.52488 1.000E-05 11:31:43.250 1.500E-01 0.500 F 0.268 0.288 -20° 24' 11.60" 1.000E-01 0.500 F -0.096 0.341 20.4 R 0.70 0.33 o 691 0.91 Yes Yes
2016CA136 O C K 2018-12-19.53253 1.000E-05 12:43:06.000 1.500E-01 0.500 F 0.220 -0.521 -07° 28' 55.30" 1.000E-01 0.500 F 0.077 0.079 20.3 R 0.70 0.80 o 691 1.07 Yes Yes
2016CA136 O C K 2018-12-19.53518 1.000E-05 12:43:05.070 1.500E-01 0.500 F 0.220 -0.234 -07° 28' 50.20" 1.000E-01 0.500 F 0.077 0.170 20.2 R 0.70 0.70 o 691 0.59 Yes Yes
2016CA136 O C K 2018-12-19.53782 1.000E-05 12:43:04.100 1.500E-01 0.500 F 0.220 -0.593 -07° 28' 45.40" 1.000E-01 0.500 F 0.077 -0.022 20.4 R 0.70 0.90 o 691 1.20 Yes Yes
2013BW76 O C K 2018-12-20.06801 1.000E-05 22:46:18.950 1.500E-01 0.500 F -0.146 0.036 -06° 18' 55.80" 1.000E-01 0.500 F 0.289 0.112 19.4 R 0.70 0.40 o 691 0.25 Yes Yes
2013BW76 O C K 2018-12-20.07292 1.000E-05 22:46:19.290 1.500E-01 0.500 F -0.146 0.251 -06° 18' 21.80" 1.000E-01 0.500 F 0.289 0.098 19.5 R 0.70 0.50 o 691 0.55 Yes Yes
2007VD12 O C K 2018-12-20.07852 1.000E-05 22:18:08.920 1.500E-01 0.500 F -0.009 0.332 +06° 12' 15.00" 1.000E-01 0.500 F 0.446 -0.112 18.5 R 0.70 -1.22 o 691 0.72 Yes Yes

[1-200] [201-400] [401-600] [601-800] [801-1000] [1001-1200] [1201-1400] [1401-1600] [1601-1800] [1801-2000] [2001-2200] [2201-2400] [2401-2600] [2601-2800] [2801-3000] [3001-3200] [3201-3400] [3401-3600] [3601-3800] [3801-4000] [4001-4200] [4201-4400] [4401-4600] [4601-4800] [4801-5000] [5001-5200] [5201-5400] [5401-5600] [5601-5800] [5801-6000] [6001-6200] [6201-6400] [6401-6600] [6601-6800] [6801-7000] [7001-7200] [7201-7400] [7401-7600] [7601-7800] [7801-8000] [8001-8200] [8201-8400] [8401-8600] [8601-8800] [8801-9000] [9001-9200] [9201-9400] [9401-9600] [9601-9800] [9801-10000] [10001-10200] [10201-10400] [10401-10600] [10601-10800] [10801-11000] [11001-11200] [11201-11400] [11401-11600] [11601-11800] [11801-12000] [12001-12200] [12201-12400] [12401-12600] [12601-12800] [12801-13000] [13001-13200] [13201-13400] [13401-13600] [13601-13800] [13801-14000] [14001-14200] [14201-14400] [14401-14600] [14601-14800] [14801-15000] [15001-15200] [15201-15400] [15401-15600] [15601-15800] [15801-16000] [16001-16200] [16201-16400] [16401-16600] [16601-16800] [16801-17000] [17001-17200] [17201-17400] [17401-17600] [17601-17800] [17801-18000] [18001-18200] [18201-18400] [18401-18600] [18601-18800] [18801-19000] [19001-19200] [19201-19400] [19401-19600] [19601-19800] [19801-20000] [20001-20200] [20201-20400] [20401-20600] [20601-20800] [20801-21000] [21001-21200] [21201-21400] [21401-21600] [21601-21800] [21801-22000] [22001-22200] [22201-22400] [22401-22600] [22601-22800] [22801-23000] [23001-23200] [23201-23400] [23401-23600] [23601-23800] [23801-24000] [24001-24200] [24201-24400] [24401-24600] [24601-24800] [24801-25000] [25001-25200] [25201-25400] [25401-25600] [25601-25800] [25801-26000] [26001-26200] [26201-26400] [26401-26600] [26601-26800] [26801-27000] [27001-27200] [27201-27400] [27401-27600] [27601-27800] [27801-28000] [28001-28200] [28201-28400] [28401-28600] [28601-28800] [28801-29000] [29001-29200] [29201-29400] [29401-29600] [29601-29800] [29801-30000] [30001-30200] [30201-30400] [30401-30600] [30601-30800] [30801-31000] [31001-31200] [31201-31400] [31401-31600] [31601-31800] [31801-32000] [32001-32200] [32201-32400] [32401-32600] [32601-32800] [32801-33000] [33001-33200] [33201-33400] [33401-33600] [33601-33800] [33801-34000] [34001-34200] [34201-34400] [34401-34600] [34601-34800] [34801-35000] [35001-35200] [35201-35400] [35401-35600] [35601-35800] [35801-36000] [36001-36200] [36201-36400] [36401-36600] [36601-36800] [36801-37000] [37001-37200] [37201-37400] [37401-37600] [37601-37800] [37801-38000] [38001-38200] [38201-38400] [38401-38600] [38601-38800] [38801-39000] [39001-39200] [39201-39400] [39401-39600] [39601-39800] [39801-40000] [40001-40200] [40201-40400] [40401-40600] [40601-40800] [40801-41000] [41001-41200] [41201-41400] [41401-41600] [41601-41800] [41801-42000] [42001-42200] [42201-42400] [42401-42600] [42601-42800] [42801-43000] [43001-43200] [43201-43400] [43401-43600] [43601-43800] [43801-44000] [44001-44200] [44201-44400] [44401-44600] [44601-44800] [44801-45000] [45001-45200] [45201-45400] [45401-45600] [45601-45800] [45801-46000] [46001-46200] [46201-46400] [46401-46600] [46601-46800] [46801-47000] [47001-47200] [47201-47400] [47401-47600] [47601-47800] [47801-48000] [48001-48200] [48201-48400] [48401-48600] [48601-48800] [48801-49000] [49001-49200] [49201-49400] [49401-49600] [49601-49800] [49801-50000] [50001-50200] [50201-50388]